sensor_id;sensor_type;location;lat;lon;timestamp;P1;durP1;ratioP1;P2;durP2;ratioP2
44536;SDS011;30245;51.966;6.292;2022-12-01T00:00:33;42.50;;;21.53;;
44536;SDS011;30245;51.966;6.292;2022-12-01T00:02:59;43.60;;;19.47;;
44536;SDS011;30245;51.966;6.292;2022-12-01T00:05:25;42.30;;;19.37;;
44536;SDS011;30245;51.966;6.292;2022-12-01T00:07:50;46.77;;;20.20;;
44536;SDS011;30245;51.966;6.292;2022-12-01T00:10:16;43.90;;;19.17;;
44536;SDS011;30245;51.966;6.292;2022-12-01T00:12:54;45.40;;;21.23;;
44536;SDS011;30245;51.966;6.292;2022-12-01T00:15:21;45.33;;;20.07;;
44536;SDS011;30245;51.966;6.292;2022-12-01T00:17:49;51.50;;;20.67;;
44536;SDS011;30245;51.966;6.292;2022-12-01T00:20:15;43.80;;;22.43;;
44536;SDS011;30245;51.966;6.292;2022-12-01T00:22:42;51.90;;;22.20;;
44536;SDS011;30245;51.966;6.292;2022-12-01T00:25:11;50.77;;;20.93;;
44536;SDS011;30245;51.966;6.292;2022-12-01T00:27:38;43.23;;;21.63;;
44536;SDS011;30245;51.966;6.292;2022-12-01T00:30:04;50.37;;;20.90;;
44536;SDS011;30245;51.966;6.292;2022-12-01T00:32:32;42.63;;;20.27;;
44536;SDS011;30245;51.966;6.292;2022-12-01T00:34:57;56.50;;;22.73;;
44536;SDS011;30245;51.966;6.292;2022-12-01T00:37:23;54.67;;;22.43;;
44536;SDS011;30245;51.966;6.292;2022-12-01T00:39:49;50.57;;;20.83;;
44536;SDS011;30245;51.966;6.292;2022-12-01T00:42:14;53.73;;;24.23;;
44536;SDS011;30245;51.966;6.292;2022-12-01T00:44:40;54.10;;;22.13;;
44536;SDS011;30245;51.966;6.292;2022-12-01T00:47:05;50.37;;;21.07;;
44536;SDS011;30245;51.966;6.292;2022-12-01T00:49:31;54.60;;;21.70;;
44536;SDS011;30245;51.966;6.292;2022-12-01T00:51:57;50.73;;;20.47;;
44536;SDS011;30245;51.966;6.292;2022-12-01T00:54:22;48.40;;;20.87;;
44536;SDS011;30245;51.966;6.292;2022-12-01T00:56:48;54.70;;;22.97;;
44536;SDS011;30245;51.966;6.292;2022-12-01T00:59:14;58.07;;;22.87;;
44536;SDS011;30245;51.966;6.292;2022-12-01T01:01:40;49.17;;;22.53;;
44536;SDS011;30245;51.966;6.292;2022-12-01T01:04:06;59.60;;;22.57;;
44536;SDS011;30245;51.966;6.292;2022-12-01T01:06:31;52.73;;;20.23;;
44536;SDS011;30245;51.966;6.292;2022-12-01T01:08:57;50.37;;;21.50;;
44536;SDS011;30245;51.966;6.292;2022-12-01T01:11:22;49.23;;;19.87;;
44536;SDS011;30245;51.966;6.292;2022-12-01T01:13:48;51.53;;;20.17;;
44536;SDS011;30245;51.966;6.292;2022-12-01T01:16:15;56.03;;;22.70;;
44536;SDS011;30245;51.966;6.292;2022-12-01T01:21:10;47.67;;;17.70;;
44536;SDS011;30245;51.966;6.292;2022-12-01T01:23:37;45.97;;;18.60;;
44536;SDS011;30245;51.966;6.292;2022-12-01T01:26:04;42.27;;;20.00;;
44536;SDS011;30245;51.966;6.292;2022-12-01T01:28:32;42.92;;;18.20;;
44536;SDS011;30245;51.966;6.292;2022-12-01T01:30:58;47.27;;;21.03;;
44536;SDS011;30245;51.966;6.292;2022-12-01T01:33:24;47.93;;;18.80;;
44536;SDS011;30245;51.966;6.292;2022-12-01T01:35:49;47.27;;;20.97;;
44536;SDS011;30245;51.966;6.292;2022-12-01T01:38:15;46.20;;;19.90;;
44536;SDS011;30245;51.966;6.292;2022-12-01T01:40:44;50.43;;;21.43;;
44536;SDS011;30245;51.966;6.292;2022-12-01T01:43:14;46.53;;;21.60;;
44536;SDS011;30245;51.966;6.292;2022-12-01T01:45:42;48.97;;;19.63;;
44536;SDS011;30245;51.966;6.292;2022-12-01T01:48:09;46.03;;;19.37;;
44536;SDS011;30245;51.966;6.292;2022-12-01T01:50:36;48.03;;;21.00;;
44536;SDS011;30245;51.966;6.292;2022-12-01T01:53:09;43.90;;;19.97;;
44536;SDS011;30245;51.966;6.292;2022-12-01T01:55:38;40.50;;;19.80;;
44536;SDS011;30245;51.966;6.292;2022-12-01T01:58:04;41.30;;;18.97;;
44536;SDS011;30245;51.966;6.292;2022-12-01T02:00:33;44.57;;;20.10;;
44536;SDS011;30245;51.966;6.292;2022-12-01T02:02:59;34.03;;;16.47;;
44536;SDS011;30245;51.966;6.292;2022-12-01T02:05:27;36.63;;;17.67;;
44536;SDS011;30245;51.966;6.292;2022-12-01T02:07:56;38.90;;;18.67;;
44536;SDS011;30245;51.966;6.292;2022-12-01T02:10:24;33.60;;;16.77;;
44536;SDS011;30245;51.966;6.292;2022-12-01T02:13:17;37.35;;;15.70;;
44536;SDS011;30245;51.966;6.292;2022-12-01T02:18:51;32.77;;;15.07;;
44536;SDS011;30245;51.966;6.292;2022-12-01T02:21:26;29.33;;;14.57;;
44536;SDS011;30245;51.966;6.292;2022-12-01T02:24:11;35.73;;;16.20;;
44536;SDS011;30245;51.966;6.292;2022-12-01T02:27:24;37.10;;;16.93;;
44536;SDS011;30245;51.966;6.292;2022-12-01T02:35:39;31.87;;;15.90;;
44536;SDS011;30245;51.966;6.292;2022-12-01T02:38:21;33.90;;;17.73;;
44536;SDS011;30245;51.966;6.292;2022-12-01T02:40:55;32.00;;;15.60;;
44536;SDS011;30245;51.966;6.292;2022-12-01T02:43:41;28.47;;;14.90;;
44536;SDS011;30245;51.966;6.292;2022-12-01T02:49:02;30.00;;;14.63;;
44536;SDS011;30245;51.966;6.292;2022-12-01T02:51:33;27.93;;;14.80;;
44536;SDS011;30245;51.966;6.292;2022-12-01T02:54:02;34.80;;;16.02;;
44536;SDS011;30245;51.966;6.292;2022-12-01T02:56:29;30.93;;;15.37;;
44536;SDS011;30245;51.966;6.292;2022-12-01T02:58:55;37.10;;;17.60;;
44536;SDS011;30245;51.966;6.292;2022-12-01T03:04:09;31.30;;;15.23;;
44536;SDS011;30245;51.966;6.292;2022-12-01T03:15:35;31.77;;;16.97;;
44536;SDS011;30245;51.966;6.292;2022-12-01T03:20:49;28.37;;;14.60;;
44536;SDS011;30245;51.966;6.292;2022-12-01T03:23:21;33.40;;;16.03;;
44536;SDS011;30245;51.966;6.292;2022-12-01T03:25:50;36.93;;;16.07;;
44536;SDS011;30245;51.966;6.292;2022-12-01T03:28:20;36.05;;;17.25;;
44536;SDS011;30245;51.966;6.292;2022-12-01T03:30:52;34.60;;;16.70;;
44536;SDS011;30245;51.966;6.292;2022-12-01T03:33:25;40.10;;;19.30;;
44536;SDS011;30245;51.966;6.292;2022-12-01T03:36:00;38.13;;;17.40;;
44536;SDS011;30245;51.966;6.292;2022-12-01T03:38:30;35.90;;;16.47;;
44536;SDS011;30245;51.966;6.292;2022-12-01T03:41:00;38.90;;;18.90;;
44536;SDS011;30245;51.966;6.292;2022-12-01T03:43:42;38.90;;;18.57;;
44536;SDS011;30245;51.966;6.292;2022-12-01T03:46:32;32.50;;;15.93;;
44536;SDS011;30245;51.966;6.292;2022-12-01T03:49:06;34.97;;;17.50;;
44536;SDS011;30245;51.966;6.292;2022-12-01T03:51:38;32.97;;;14.77;;
44536;SDS011;30245;51.966;6.292;2022-12-01T03:56:59;39.60;;;15.77;;
44536;SDS011;30245;51.966;6.292;2022-12-01T03:59:29;36.27;;;18.33;;
44536;SDS011;30245;51.966;6.292;2022-12-01T04:01:59;36.87;;;18.10;;
44536;SDS011;30245;51.966;6.292;2022-12-01T04:04:25;39.23;;;21.13;;
44536;SDS011;30245;51.966;6.292;2022-12-01T04:06:50;46.87;;;21.07;;
44536;SDS011;30245;51.966;6.292;2022-12-01T04:09:16;41.97;;;20.87;;
44536;SDS011;30245;51.966;6.292;2022-12-01T04:11:42;44.03;;;21.57;;
44536;SDS011;30245;51.966;6.292;2022-12-01T04:14:26;44.43;;;20.37;;
44536;SDS011;30245;51.966;6.292;2022-12-01T04:16:51;42.67;;;21.13;;
44536;SDS011;30245;51.966;6.292;2022-12-01T04:19:17;41.80;;;18.90;;
44536;SDS011;30245;51.966;6.292;2022-12-01T04:21:42;44.37;;;20.77;;
44536;SDS011;30245;51.966;6.292;2022-12-01T04:24:08;46.77;;;19.20;;
44536;SDS011;30245;51.966;6.292;2022-12-01T04:26:36;38.57;;;18.73;;
44536;SDS011;30245;51.966;6.292;2022-12-01T04:29:04;39.80;;;18.37;;
44536;SDS011;30245;51.966;6.292;2022-12-01T04:31:32;42.07;;;18.90;;
44536;SDS011;30245;51.966;6.292;2022-12-01T04:33:58;39.63;;;17.90;;
44536;SDS011;30245;51.966;6.292;2022-12-01T04:36:24;41.43;;;18.43;;
44536;SDS011;30245;51.966;6.292;2022-12-01T04:38:51;40.20;;;19.57;;
44536;SDS011;30245;51.966;6.292;2022-12-01T04:41:16;43.30;;;20.03;;
44536;SDS011;30245;51.966;6.292;2022-12-01T04:43:42;44.13;;;20.17;;
44536;SDS011;30245;51.966;6.292;2022-12-01T04:46:08;44.73;;;19.73;;
44536;SDS011;30245;51.966;6.292;2022-12-01T04:48:34;44.67;;;20.30;;
44536;SDS011;30245;51.966;6.292;2022-12-01T04:51:01;41.93;;;18.87;;
44536;SDS011;30245;51.966;6.292;2022-12-01T04:53:30;46.73;;;21.07;;
44536;SDS011;30245;51.966;6.292;2022-12-01T04:55:57;53.67;;;23.13;;
44536;SDS011;30245;51.966;6.292;2022-12-01T04:58:23;44.13;;;22.03;;
44536;SDS011;30245;51.966;6.292;2022-12-01T05:00:49;40.70;;;21.37;;
44536;SDS011;30245;51.966;6.292;2022-12-01T05:03:14;51.73;;;21.73;;
44536;SDS011;30245;51.966;6.292;2022-12-01T05:05:40;46.40;;;21.23;;
44536;SDS011;30245;51.966;6.292;2022-12-01T05:08:06;50.73;;;22.23;;
44536;SDS011;30245;51.966;6.292;2022-12-01T05:10:33;47.43;;;22.53;;
44536;SDS011;30245;51.966;6.292;2022-12-01T05:13:00;45.30;;;23.70;;
44536;SDS011;30245;51.966;6.292;2022-12-01T05:15:26;44.20;;;21.10;;
44536;SDS011;30245;51.966;6.292;2022-12-01T05:17:52;41.27;;;18.60;;
44536;SDS011;30245;51.966;6.292;2022-12-01T05:20:19;36.60;;;19.57;;
44536;SDS011;30245;51.966;6.292;2022-12-01T05:23:04;39.87;;;20.50;;
44536;SDS011;30245;51.966;6.292;2022-12-01T05:25:30;36.80;;;18.50;;
44536;SDS011;30245;51.966;6.292;2022-12-01T05:27:57;42.43;;;20.93;;
44536;SDS011;30245;51.966;6.292;2022-12-01T05:30:23;41.93;;;19.77;;
44536;SDS011;30245;51.966;6.292;2022-12-01T05:32:48;39.93;;;19.97;;
44536;SDS011;30245;51.966;6.292;2022-12-01T05:35:14;39.83;;;20.40;;
44536;SDS011;30245;51.966;6.292;2022-12-01T05:37:40;37.77;;;19.00;;
44536;SDS011;30245;51.966;6.292;2022-12-01T05:40:06;38.97;;;19.00;;
44536;SDS011;30245;51.966;6.292;2022-12-01T05:42:32;36.70;;;22.30;;
44536;SDS011;30245;51.966;6.292;2022-12-01T05:44:57;40.63;;;19.27;;
44536;SDS011;30245;51.966;6.292;2022-12-01T05:47:23;35.07;;;18.17;;
44536;SDS011;30245;51.966;6.292;2022-12-01T05:49:48;36.53;;;18.77;;
44536;SDS011;30245;51.966;6.292;2022-12-01T05:52:14;36.37;;;19.83;;
44536;SDS011;30245;51.966;6.292;2022-12-01T05:54:39;36.13;;;19.57;;
44536;SDS011;30245;51.966;6.292;2022-12-01T05:57:05;37.07;;;19.60;;
44536;SDS011;30245;51.966;6.292;2022-12-01T05:59:31;37.73;;;19.87;;
44536;SDS011;30245;51.966;6.292;2022-12-01T06:01:56;38.13;;;19.43;;
44536;SDS011;30245;51.966;6.292;2022-12-01T06:04:22;36.80;;;19.43;;
44536;SDS011;30245;51.966;6.292;2022-12-01T06:06:48;38.80;;;20.47;;
44536;SDS011;30245;51.966;6.292;2022-12-01T06:09:14;38.27;;;21.43;;
44536;SDS011;30245;51.966;6.292;2022-12-01T06:11:40;36.17;;;19.27;;
44536;SDS011;30245;51.966;6.292;2022-12-01T06:14:06;32.73;;;20.03;;
44536;SDS011;30245;51.966;6.292;2022-12-01T06:16:31;35.73;;;19.83;;
44536;SDS011;30245;51.966;6.292;2022-12-01T06:18:57;42.90;;;20.23;;
44536;SDS011;30245;51.966;6.292;2022-12-01T06:21:22;36.23;;;20.23;;
44536;SDS011;30245;51.966;6.292;2022-12-01T06:23:48;41.13;;;20.33;;
44536;SDS011;30245;51.966;6.292;2022-12-01T06:26:14;39.60;;;20.40;;
44536;SDS011;30245;51.966;6.292;2022-12-01T06:28:39;36.10;;;18.43;;
44536;SDS011;30245;51.966;6.292;2022-12-01T06:31:05;40.70;;;20.23;;
44536;SDS011;30245;51.966;6.292;2022-12-01T06:33:30;39.23;;;21.10;;
44536;SDS011;30245;51.966;6.292;2022-12-01T06:35:59;38.67;;;21.00;;
44536;SDS011;30245;51.966;6.292;2022-12-01T06:38:29;38.50;;;20.20;;
44536;SDS011;30245;51.966;6.292;2022-12-01T06:40:56;45.10;;;20.97;;
44536;SDS011;30245;51.966;6.292;2022-12-01T06:43:21;41.87;;;23.27;;
44536;SDS011;30245;51.966;6.292;2022-12-01T06:45:47;42.60;;;20.07;;
44536;SDS011;30245;51.966;6.292;2022-12-01T06:48:12;40.43;;;20.07;;
44536;SDS011;30245;51.966;6.292;2022-12-01T06:50:38;41.00;;;21.20;;
44536;SDS011;30245;51.966;6.292;2022-12-01T06:53:04;40.90;;;21.00;;
44536;SDS011;30245;51.966;6.292;2022-12-01T06:55:30;37.07;;;19.63;;
44536;SDS011;30245;51.966;6.292;2022-12-01T06:57:58;38.43;;;20.70;;
44536;SDS011;30245;51.966;6.292;2022-12-01T07:00:24;41.33;;;21.48;;
44536;SDS011;30245;51.966;6.292;2022-12-01T07:02:50;40.83;;;19.40;;
44536;SDS011;30245;51.966;6.292;2022-12-01T07:05:15;43.53;;;20.43;;
44536;SDS011;30245;51.966;6.292;2022-12-01T07:07:41;39.13;;;20.43;;
44536;SDS011;30245;51.966;6.292;2022-12-01T07:10:07;42.50;;;23.47;;
44536;SDS011;30245;51.966;6.292;2022-12-01T07:12:33;48.47;;;23.40;;
44536;SDS011;30245;51.966;6.292;2022-12-01T07:14:59;44.13;;;21.50;;
44536;SDS011;30245;51.966;6.292;2022-12-01T07:17:25;46.30;;;24.27;;
44536;SDS011;30245;51.966;6.292;2022-12-01T07:19:51;41.27;;;20.60;;
44536;SDS011;30245;51.966;6.292;2022-12-01T07:22:17;47.00;;;22.40;;
44536;SDS011;30245;51.966;6.292;2022-12-01T07:24:42;46.33;;;23.23;;
44536;SDS011;30245;51.966;6.292;2022-12-01T07:27:08;42.50;;;23.00;;
44536;SDS011;30245;51.966;6.292;2022-12-01T07:29:33;44.93;;;22.83;;
44536;SDS011;30245;51.966;6.292;2022-12-01T07:31:59;52.47;;;24.23;;
44536;SDS011;30245;51.966;6.292;2022-12-01T07:34:24;49.30;;;23.70;;
44536;SDS011;30245;51.966;6.292;2022-12-01T07:36:50;47.43;;;23.67;;
44536;SDS011;30245;51.966;6.292;2022-12-01T07:39:15;55.20;;;25.00;;
44536;SDS011;30245;51.966;6.292;2022-12-01T07:41:41;57.17;;;24.17;;
44536;SDS011;30245;51.966;6.292;2022-12-01T07:44:10;52.83;;;24.27;;
44536;SDS011;30245;51.966;6.292;2022-12-01T07:46:36;50.80;;;24.50;;
44536;SDS011;30245;51.966;6.292;2022-12-01T07:49:03;54.20;;;24.90;;
44536;SDS011;30245;51.966;6.292;2022-12-01T07:51:30;50.93;;;24.57;;
44536;SDS011;30245;51.966;6.292;2022-12-01T07:54:00;58.33;;;25.90;;
44536;SDS011;30245;51.966;6.292;2022-12-01T07:56:27;50.10;;;24.63;;
44536;SDS011;30245;51.966;6.292;2022-12-01T07:58:53;50.77;;;24.40;;
44536;SDS011;30245;51.966;6.292;2022-12-01T08:01:20;59.23;;;26.30;;
44536;SDS011;30245;51.966;6.292;2022-12-01T08:03:47;54.70;;;24.38;;
44536;SDS011;30245;51.966;6.292;2022-12-01T08:06:14;54.47;;;25.50;;
44536;SDS011;30245;51.966;6.292;2022-12-01T08:08:41;56.00;;;25.67;;
44536;SDS011;30245;51.966;6.292;2022-12-01T08:11:09;52.47;;;25.27;;
44536;SDS011;30245;51.966;6.292;2022-12-01T08:13:36;47.87;;;22.80;;
44536;SDS011;30245;51.966;6.292;2022-12-01T08:16:06;57.73;;;27.27;;
44536;SDS011;30245;51.966;6.292;2022-12-01T08:18:33;55.03;;;25.77;;
44536;SDS011;30245;51.966;6.292;2022-12-01T08:21:00;53.23;;;26.20;;
44536;SDS011;30245;51.966;6.292;2022-12-01T08:23:26;54.87;;;27.23;;
44536;SDS011;30245;51.966;6.292;2022-12-01T08:25:51;49.13;;;24.23;;
44536;SDS011;30245;51.966;6.292;2022-12-01T08:28:17;54.10;;;26.57;;
44536;SDS011;30245;51.966;6.292;2022-12-01T08:30:44;52.83;;;25.40;;
44536;SDS011;30245;51.966;6.292;2022-12-01T08:33:10;52.60;;;23.70;;
44536;SDS011;30245;51.966;6.292;2022-12-01T08:35:35;49.93;;;25.20;;
44536;SDS011;30245;51.966;6.292;2022-12-01T08:38:01;48.07;;;24.73;;
44536;SDS011;30245;51.966;6.292;2022-12-01T08:40:27;51.40;;;25.40;;
44536;SDS011;30245;51.966;6.292;2022-12-01T08:42:53;53.87;;;23.13;;
44536;SDS011;30245;51.966;6.292;2022-12-01T08:45:19;52.83;;;24.70;;
44536;SDS011;30245;51.966;6.292;2022-12-01T08:47:44;56.43;;;24.50;;
44536;SDS011;30245;51.966;6.292;2022-12-01T08:50:11;54.10;;;25.27;;
44536;SDS011;30245;51.966;6.292;2022-12-01T08:52:37;45.37;;;21.90;;
44536;SDS011;30245;51.966;6.292;2022-12-01T08:55:03;51.83;;;25.50;;
44536;SDS011;30245;51.966;6.292;2022-12-01T08:57:29;59.37;;;27.57;;
44536;SDS011;30245;51.966;6.292;2022-12-01T08:59:55;47.00;;;23.17;;
44536;SDS011;30245;51.966;6.292;2022-12-01T09:02:21;44.53;;;24.33;;
44536;SDS011;30245;51.966;6.292;2022-12-01T09:04:47;51.00;;;24.23;;
44536;SDS011;30245;51.966;6.292;2022-12-01T09:07:15;52.05;;;22.73;;
44536;SDS011;30245;51.966;6.292;2022-12-01T09:09:44;56.03;;;27.10;;
44536;SDS011;30245;51.966;6.292;2022-12-01T09:12:11;55.17;;;25.20;;
44536;SDS011;30245;51.966;6.292;2022-12-01T09:14:37;55.67;;;26.77;;
44536;SDS011;30245;51.966;6.292;2022-12-01T09:17:04;48.97;;;23.10;;
44536;SDS011;30245;51.966;6.292;2022-12-01T09:19:31;46.63;;;22.90;;
44536;SDS011;30245;51.966;6.292;2022-12-01T09:21:57;55.00;;;27.13;;
44536;SDS011;30245;51.966;6.292;2022-12-01T09:24:23;52.10;;;26.77;;
44536;SDS011;30245;51.966;6.292;2022-12-01T09:26:48;50.23;;;25.27;;
44536;SDS011;30245;51.966;6.292;2022-12-01T09:29:15;50.67;;;25.77;;
44536;SDS011;30245;51.966;6.292;2022-12-01T09:31:41;61.13;;;26.13;;
44536;SDS011;30245;51.966;6.292;2022-12-01T09:34:09;54.07;;;25.00;;
44536;SDS011;30245;51.966;6.292;2022-12-01T09:36:37;54.67;;;26.33;;
44536;SDS011;30245;51.966;6.292;2022-12-01T09:39:03;54.10;;;24.30;;
44536;SDS011;30245;51.966;6.292;2022-12-01T09:46:54;46.90;;;22.70;;
44536;SDS011;30245;51.966;6.292;2022-12-01T09:49:38;48.60;;;24.43;;
44536;SDS011;30245;51.966;6.292;2022-12-01T09:52:13;44.67;;;22.47;;
44536;SDS011;30245;51.966;6.292;2022-12-01T09:54:40;60.00;;;26.98;;
44536;SDS011;30245;51.966;6.292;2022-12-01T09:57:10;48.17;;;23.50;;
44536;SDS011;30245;51.966;6.292;2022-12-01T09:59:50;52.47;;;24.53;;
44536;SDS011;30245;51.966;6.292;2022-12-01T10:02:25;48.83;;;23.13;;
44536;SDS011;30245;51.966;6.292;2022-12-01T10:05:02;49.77;;;23.13;;
44536;SDS011;30245;51.966;6.292;2022-12-01T10:07:32;52.93;;;25.03;;
44536;SDS011;30245;51.966;6.292;2022-12-01T10:10:36;39.70;;;21.03;;
44536;SDS011;30245;51.966;6.292;2022-12-01T10:12:57;51.97;;;25.60;;
44536;SDS011;30245;51.966;6.292;2022-12-01T10:18:04;46.15;;;24.15;;
44536;SDS011;30245;51.966;6.292;2022-12-01T10:23:55;46.30;;;21.60;;
44536;SDS011;30245;51.966;6.292;2022-12-01T10:26:49;47.57;;;22.17;;
44536;SDS011;30245;51.966;6.292;2022-12-01T10:32:53;48.33;;;21.47;;
44536;SDS011;30245;51.966;6.292;2022-12-01T10:35:31;45.83;;;22.90;;
44536;SDS011;30245;51.966;6.292;2022-12-01T10:38:01;44.53;;;22.57;;
44536;SDS011;30245;51.966;6.292;2022-12-01T10:40:30;46.17;;;23.13;;
44536;SDS011;30245;51.966;6.292;2022-12-01T10:43:00;53.70;;;23.77;;
44536;SDS011;30245;51.966;6.292;2022-12-01T10:45:27;48.87;;;23.93;;
44536;SDS011;30245;51.966;6.292;2022-12-01T10:48:15;50.40;;;25.47;;
44536;SDS011;30245;51.966;6.292;2022-12-01T10:50:46;47.83;;;23.83;;
44536;SDS011;30245;51.966;6.292;2022-12-01T10:56:11;49.20;;;22.23;;
44536;SDS011;30245;51.966;6.292;2022-12-01T10:58:46;41.63;;;22.13;;
44536;SDS011;30245;51.966;6.292;2022-12-01T11:01:32;41.13;;;22.47;;
44536;SDS011;30245;51.966;6.292;2022-12-01T11:04:06;39.40;;;21.37;;
44536;SDS011;30245;51.966;6.292;2022-12-01T11:06:48;44.43;;;21.30;;
44536;SDS011;30245;51.966;6.292;2022-12-01T11:09:19;35.97;;;21.00;;
44536;SDS011;30245;51.966;6.292;2022-12-01T11:11:53;45.33;;;22.47;;
44536;SDS011;30245;51.966;6.292;2022-12-01T11:14:27;42.77;;;23.17;;
44536;SDS011;30245;51.966;6.292;2022-12-01T11:17:14;39.43;;;20.40;;
44536;SDS011;30245;51.966;6.292;2022-12-01T11:19:41;46.07;;;21.77;;
44536;SDS011;30245;51.966;6.292;2022-12-01T11:22:20;41.67;;;23.90;;
44536;SDS011;30245;51.966;6.292;2022-12-01T11:27:23;45.63;;;24.93;;
44536;SDS011;30245;51.966;6.292;2022-12-01T11:30:01;50.10;;;24.17;;
44536;SDS011;30245;51.966;6.292;2022-12-01T11:32:36;46.60;;;22.77;;
44536;SDS011;30245;51.966;6.292;2022-12-01T11:35:05;44.57;;;25.23;;
44536;SDS011;30245;51.966;6.292;2022-12-01T11:37:45;41.70;;;20.57;;
44536;SDS011;30245;51.966;6.292;2022-12-01T11:42:58;44.70;;;23.10;;
44536;SDS011;30245;51.966;6.292;2022-12-01T11:45:27;40.80;;;21.33;;
44536;SDS011;30245;51.966;6.292;2022-12-01T11:48:41;46.03;;;20.93;;
44536;SDS011;30245;51.966;6.292;2022-12-01T11:50:58;46.88;;;23.55;;
44536;SDS011;30245;51.966;6.292;2022-12-01T11:53:25;38.93;;;22.47;;
44536;SDS011;30245;51.966;6.292;2022-12-01T11:56:18;40.83;;;22.00;;
44536;SDS011;30245;51.966;6.292;2022-12-01T11:58:50;39.70;;;21.63;;
44536;SDS011;30245;51.966;6.292;2022-12-01T12:04:19;41.60;;;22.17;;
44536;SDS011;30245;51.966;6.292;2022-12-01T12:21:03;34.60;;;20.50;;
44536;SDS011;30245;51.966;6.292;2022-12-01T12:29:01;38.43;;;22.03;;
44536;SDS011;30245;51.966;6.292;2022-12-01T12:45:21;36.27;;;20.17;;
44536;SDS011;30245;51.966;6.292;2022-12-01T12:51:00;38.07;;;21.27;;
44536;SDS011;30245;51.966;6.292;2022-12-01T12:53:58;34.77;;;19.07;;
44536;SDS011;30245;51.966;6.292;2022-12-01T12:56:34;37.13;;;20.70;;
44536;SDS011;30245;51.966;6.292;2022-12-01T12:59:07;30.67;;;17.73;;
44536;SDS011;30245;51.966;6.292;2022-12-01T13:01:40;42.37;;;20.47;;
44536;SDS011;30245;51.966;6.292;2022-12-01T13:04:11;38.67;;;21.87;;
44536;SDS011;30245;51.966;6.292;2022-12-01T13:06:43;33.90;;;20.57;;
44536;SDS011;30245;51.966;6.292;2022-12-01T13:09:37;33.03;;;20.00;;
44536;SDS011;30245;51.966;6.292;2022-12-01T13:12:11;31.47;;;18.77;;
44536;SDS011;30245;51.966;6.292;2022-12-01T13:14:52;42.37;;;22.90;;
44536;SDS011;30245;51.966;6.292;2022-12-01T13:17:32;36.03;;;21.33;;
44536;SDS011;30245;51.966;6.292;2022-12-01T13:20:03;39.63;;;20.00;;
44536;SDS011;30245;51.966;6.292;2022-12-01T13:22:31;37.57;;;20.73;;
44536;SDS011;30245;51.966;6.292;2022-12-01T13:24:58;39.55;;;22.42;;
44536;SDS011;30245;51.966;6.292;2022-12-01T13:27:24;35.10;;;20.57;;
44536;SDS011;30245;51.966;6.292;2022-12-01T13:29:55;42.03;;;22.60;;
44536;SDS011;30245;51.966;6.292;2022-12-01T13:32:26;37.07;;;20.60;;
44536;SDS011;30245;51.966;6.292;2022-12-01T13:34:57;36.53;;;21.77;;
44536;SDS011;30245;51.966;6.292;2022-12-01T13:37:28;34.67;;;21.60;;
44536;SDS011;30245;51.966;6.292;2022-12-01T13:40:05;41.20;;;23.87;;
44536;SDS011;30245;51.966;6.292;2022-12-01T13:43:00;41.00;;;22.60;;
44536;SDS011;30245;51.966;6.292;2022-12-01T13:45:32;42.53;;;24.33;;
44536;SDS011;30245;51.966;6.292;2022-12-01T13:48:01;38.37;;;21.57;;
44536;SDS011;30245;51.966;6.292;2022-12-01T13:55:55;39.40;;;22.57;;
44536;SDS011;30245;51.966;6.292;2022-12-01T14:09:06;34.57;;;20.00;;
44536;SDS011;30245;51.966;6.292;2022-12-01T14:11:40;32.55;;;20.50;;
44536;SDS011;30245;51.966;6.292;2022-12-01T14:14:18;36.07;;;19.17;;
44536;SDS011;30245;51.966;6.292;2022-12-01T14:16:56;36.40;;;18.92;;
44536;SDS011;30245;51.966;6.292;2022-12-01T14:22:04;36.47;;;20.57;;
44536;SDS011;30245;51.966;6.292;2022-12-01T14:24:38;38.10;;;19.53;;
44536;SDS011;30245;51.966;6.292;2022-12-01T14:27:06;45.60;;;23.50;;
44536;SDS011;30245;51.966;6.292;2022-12-01T14:29:33;34.73;;;19.10;;
44536;SDS011;30245;51.966;6.292;2022-12-01T14:34:32;38.85;;;21.17;;
44536;SDS011;30245;51.966;6.292;2022-12-01T14:37:08;36.20;;;20.53;;
44536;SDS011;30245;51.966;6.292;2022-12-01T14:39:42;38.73;;;19.87;;
44536;SDS011;30245;51.966;6.292;2022-12-01T14:44:48;34.43;;;20.60;;
44536;SDS011;30245;51.966;6.292;2022-12-01T14:52:38;39.00;;;18.37;;
44536;SDS011;30245;51.966;6.292;2022-12-01T14:55:14;32.97;;;18.23;;
44536;SDS011;30245;51.966;6.292;2022-12-01T14:57:44;35.07;;;17.90;;
44536;SDS011;30245;51.966;6.292;2022-12-01T15:00:14;33.23;;;19.13;;
44536;SDS011;30245;51.966;6.292;2022-12-01T15:02:50;35.27;;;19.20;;
44536;SDS011;30245;51.966;6.292;2022-12-01T15:05:19;34.90;;;17.77;;
44536;SDS011;30245;51.966;6.292;2022-12-01T15:07:50;34.90;;;18.27;;
44536;SDS011;30245;51.966;6.292;2022-12-01T15:10:22;30.20;;;17.50;;
44536;SDS011;30245;51.966;6.292;2022-12-01T15:13:10;34.90;;;17.87;;
44536;SDS011;30245;51.966;6.292;2022-12-01T15:15:54;32.53;;;18.57;;
44536;SDS011;30245;51.966;6.292;2022-12-01T15:18:28;29.57;;;17.40;;
44536;SDS011;30245;51.966;6.292;2022-12-01T15:27:02;35.03;;;16.10;;
44536;SDS011;30245;51.966;6.292;2022-12-01T15:32:04;30.23;;;17.60;;
44536;SDS011;30245;51.966;6.292;2022-12-01T15:34:34;29.50;;;17.97;;
44536;SDS011;30245;51.966;6.292;2022-12-01T15:37:03;37.63;;;19.53;;
44536;SDS011;30245;51.966;6.292;2022-12-01T15:39:33;33.27;;;17.87;;
44536;SDS011;30245;51.966;6.292;2022-12-01T15:42:01;35.60;;;19.27;;
44536;SDS011;30245;51.966;6.292;2022-12-01T15:44:29;29.43;;;16.50;;
44536;SDS011;30245;51.966;6.292;2022-12-01T15:46:57;32.00;;;16.33;;
44536;SDS011;30245;51.966;6.292;2022-12-01T15:49:23;37.00;;;20.00;;
44536;SDS011;30245;51.966;6.292;2022-12-01T15:51:53;31.60;;;18.43;;
44536;SDS011;30245;51.966;6.292;2022-12-01T15:54:27;28.63;;;17.57;;
44536;SDS011;30245;51.966;6.292;2022-12-01T15:56:54;32.53;;;17.80;;
44536;SDS011;30245;51.966;6.292;2022-12-01T16:01:50;33.03;;;18.47;;
44536;SDS011;30245;51.966;6.292;2022-12-01T16:04:19;33.23;;;18.20;;
44536;SDS011;30245;51.966;6.292;2022-12-01T16:06:57;32.83;;;16.67;;
44536;SDS011;30245;51.966;6.292;2022-12-01T16:09:35;30.08;;;17.63;;
44536;SDS011;30245;51.966;6.292;2022-12-01T16:14:31;33.88;;;16.88;;
44536;SDS011;30245;51.966;6.292;2022-12-01T16:16:58;35.40;;;16.57;;
44536;SDS011;30245;51.966;6.292;2022-12-01T16:24:35;31.00;;;17.30;;
44536;SDS011;30245;51.966;6.292;2022-12-01T16:29:54;29.57;;;16.77;;
44536;SDS011;30245;51.966;6.292;2022-12-01T16:35:04;29.10;;;16.40;;
44536;SDS011;30245;51.966;6.292;2022-12-01T16:37:31;31.50;;;16.93;;
44536;SDS011;30245;51.966;6.292;2022-12-01T16:39:56;36.40;;;18.33;;
44536;SDS011;30245;51.966;6.292;2022-12-01T16:42:22;31.37;;;17.37;;
44536;SDS011;30245;51.966;6.292;2022-12-01T16:44:48;34.97;;;18.50;;
44536;SDS011;30245;51.966;6.292;2022-12-01T16:47:33;26.13;;;15.93;;
44536;SDS011;30245;51.966;6.292;2022-12-01T16:49:58;32.53;;;17.50;;
44536;SDS011;30245;51.966;6.292;2022-12-01T16:52:24;31.33;;;16.70;;
44536;SDS011;30245;51.966;6.292;2022-12-01T16:54:49;32.27;;;18.10;;
44536;SDS011;30245;51.966;6.292;2022-12-01T16:57:15;27.33;;;15.80;;
44536;SDS011;30245;51.966;6.292;2022-12-01T16:59:41;32.00;;;18.23;;
44536;SDS011;30245;51.966;6.292;2022-12-01T17:02:08;29.20;;;18.33;;